Time;durP1;ratioP1;P1;durP2;ratioP2;P2;SDS_P1;SDS_P2;PMS_P1;PMS_P2;Temp;Humidity;BMP_temperature;BMP_pressure;BME280_temperature;BME280_humidity;BME280_pressure;Samples;Min_cycle;Max_cycle;Signal;HPM_P1;HPM_P2
2022/05/29 00:00:54;;;;;;;2.70;1.30;;;;;;;4.73;100.00;92779.75;2106585;28;20426;-81
2022/05/29 00:01:56;;;;;;;2.92;1.40;;;;;;;4.59;100.00;92781.72;2098305;28;20047;-81
2022/05/29 00:02:58;;;;;;;5.03;1.55;;;;;;;4.65;100.00;92783.56;2101416;28;20028;-81
2022/05/29 00:03:59;;;;;;;3.55;1.50;;;;;;;4.70;100.00;92775.25;2098248;28;20488;-81
2022/05/29 00:05:00;;;;;;;2.90;1.20;;;;;;;4.67;100.00;92778.66;2093657;28;20032;-82
2022/05/29 00:06:03;;;;;;;1.20;1.00;;;;;;;4.68;100.00;92768.84;2090765;28;20412;-82
2022/05/29 00:07:04;;;;;;;2.88;1.40;;;;;;;4.72;100.00;92772.97;2098700;28;20469;-81
2022/05/29 00:08:09;;;;;;;2.25;1.40;;;;;;;4.59;100.00;92771.91;2098303;28;20111;-81
2022/05/29 00:09:13;;;;;;;1.85;1.13;;;;;;;4.53;100.00;92781.38;2099291;28;20040;-81
2022/05/29 00:10:15;;;;;;;2.60;1.30;;;;;;;4.50;100.00;92777.59;2098624;28;20485;-81
2022/05/29 00:11:16;;;;;;;4.50;1.73;;;;;;;4.64;100.00;92774.13;2098598;28;20449;-81
2022/05/29 00:12:20;;;;;;;4.00;1.30;;;;;;;4.47;100.00;92783.66;2106494;28;20024;-81
2022/05/29 00:13:22;;;;;;;2.10;1.38;;;;;;;4.53;100.00;92782.13;2090612;28;20057;-81
2022/05/29 00:14:23;;;;;;;3.70;1.27;;;;;;;4.43;100.00;92777.63;2090072;28;20064;-81
2022/05/29 00:15:24;;;;;;;2.50;1.17;;;;;;;4.45;100.00;92782.56;2089960;28;20041;-81
2022/05/29 00:16:25;;;;;;;4.20;1.38;;;;;;;4.49;100.00;92781.41;2106435;28;20031;-81
2022/05/29 00:17:27;;;;;;;1.95;1.23;;;;;;;4.47;100.00;92782.91;2114991;28;20089;-81
2022/05/29 00:18:29;;;;;;;1.95;1.20;;;;;;;4.34;100.00;92779.94;2106481;28;20020;-81
2022/05/29 00:19:31;;;;;;;2.85;1.25;;;;;;;4.46;100.00;92784.81;2098507;28;20024;-81
2022/05/29 00:20:35;;;;;;;2.33;1.10;;;;;;;4.30;100.00;92771.25;2098383;28;20048;-81
2022/05/29 00:21:37;;;;;;;3.55;1.50;;;;;;;4.33;100.00;92778.44;2106476;28;20024;-81
2022/05/29 00:22:39;;;;;;;1.70;1.10;;;;;;;4.31;100.00;92779.97;2106601;28;20509;-82
2022/05/29 00:23:42;;;;;;;3.33;1.30;;;;;;;4.23;100.00;92776.59;2111801;28;20023;-81
2022/05/29 00:24:46;;;;;;;2.28;1.10;;;;;;;4.18;100.00;92774.34;2106750;28;20459;-81
2022/05/29 00:25:52;;;;;;;4.72;1.40;;;;;;;4.33;100.00;92769.75;2098814;28;20036;-81
2022/05/29 00:26:54;;;;;;;1.20;1.10;;;;;;;4.17;100.00;92773.59;2096596;28;20032;-81
2022/05/29 00:27:55;;;;;;;3.22;1.13;;;;;;;4.16;100.00;92774.72;2090353;28;20032;-81
2022/05/29 00:28:57;;;;;;;2.95;1.27;;;;;;;4.06;100.00;92772.84;2098114;28;20039;-80
2022/05/29 00:29:58;;;;;;;1.85;1.25;;;;;;;4.11;100.00;92771.72;2106481;28;20027;-81
2022/05/29 00:30:59;;;;;;;2.53;1.40;;;;;;;4.12;100.00;92770.56;2122628;27;20015;-82
2022/05/29 00:32:00;;;;;;;3.20;1.35;;;;;;;3.94;100.00;92765.34;2106362;28;20124;-81
2022/05/29 00:33:02;;;;;;;1.73;1.30;;;;;;;4.15;100.00;92767.16;2097911;28;20025;-81
2022/05/29 00:34:03;;;;;;;2.05;1.30;;;;;;;4.04;100.00;92764.56;2102034;28;20107;-81
2022/05/29 00:35:05;;;;;;;2.35;1.20;;;;;;;3.96;100.00;92763.81;2106463;28;20031;-81
2022/05/29 00:36:09;;;;;;;3.75;1.35;;;;;;;4.06;100.00;92764.94;2106468;28;20074;-81
2022/05/29 00:37:11;;;;;;;3.00;1.48;;;;;;;4.00;100.00;92758.53;2115392;27;20027;-81
2022/05/29 00:38:13;;;;;;;2.58;1.38;;;;;;;3.91;100.00;92755.53;2112588;28;20106;-81
2022/05/29 00:39:16;;;;;;;3.88;1.55;;;;;;;3.84;100.00;92758.94;2098274;28;20021;-81
2022/05/29 00:40:38;;;;;;;2.05;1.35;;;;;;;3.93;100.00;92756.66;2106312;28;20024;-81
2022/05/29 00:41:39;;;;;;;2.38;1.30;;;;;;;3.93;100.00;92756.66;2103642;28;20027;-81
2022/05/29 00:42:40;;;;;;;1.90;1.15;;;;;;;4.13;100.00;92756.22;2106257;28;20437;-82
2022/05/29 00:43:42;;;;;;;4.07;1.40;;;;;;;4.03;100.00;92755.84;2097966;28;20035;-82
2022/05/29 00:44:44;;;;;;;3.10;1.50;;;;;;;3.94;100.00;92755.50;2097936;28;20025;-82
2022/05/29 00:46:01;;;;;;;2.80;1.23;;;;;;;4.11;100.00;92753.19;2106417;28;20031;-81
2022/05/29 00:47:18;;;;;;;1.50;1.20;;;;;;;3.98;100.00;92750.22;2106277;28;20024;-81
2022/05/29 00:48:20;;;;;;;1.63;1.30;;;;;;;3.77;100.00;92757.06;2108668;27;20058;-81
2022/05/29 00:49:29;;;;;;;4.28;1.40;;;;;;;3.91;100.00;92753.66;2114775;28;20033;-81
2022/05/29 00:50:31;;;;;;;6.72;1.50;;;;;;;3.86;100.00;92751.38;2107540;28;20024;-81
2022/05/29 00:51:37;;;;;;;4.35;1.30;;;;;;;3.88;100.00;92754.41;2114727;27;20110;-81
2022/05/29 00:52:38;;;;;;;2.83;1.00;;;;;;;3.92;100.00;92749.09;2114375;28;20027;-81
2022/05/29 00:53:39;;;;;;;2.65;1.30;;;;;;;3.96;100.00;92747.97;2097221;28;20109;-81
2022/05/29 00:54:53;;;;;;;3.60;1.13;;;;;;;4.04;100.00;92743.41;2097825;28;20033;-81
2022/05/29 00:56:00;;;;;;;3.45;1.40;;;;;;;4.04;100.00;92741.53;2101228;28;20029;-81
2022/05/29 00:57:03;;;;;;;2.47;1.30;;;;;;;4.05;100.00;92739.63;2107099;28;20024;-81
2022/05/29 00:58:05;;;;;;;4.53;1.50;;;;;;;4.13;100.00;92741.13;2106486;28;20047;-81
2022/05/29 00:59:12;;;;;;;3.15;1.00;;;;;;;3.90;100.00;92741.53;2106501;27;20495;-81
2022/05/29 01:00:17;;;;;;;2.50;1.25;;;;;;;3.80;100.00;92734.41;2115496;28;20024;-82
2022/05/29 01:01:18;;;;;;;1.77;1.33;;;;;;;3.79;100.00;92733.66;2104540;28;20499;-82
2022/05/29 01:02:19;;;;;;;4.55;1.33;;;;;;;3.81;100.00;92735.16;2089380;28;20024;-81
2022/05/29 01:03:20;;;;;;;2.78;1.23;;;;;;;3.79;100.00;92738.19;2095701;28;20175;-81
2022/05/29 01:04:22;;;;;;;1.63;1.30;;;;;;;3.66;100.00;92739.72;2114510;28;20020;-81
2022/05/29 01:05:26;;;;;;;2.78;1.25;;;;;;;3.71;100.00;92729.50;2106154;28;20023;-81
2022/05/29 01:06:28;;;;;;;1.25;0.95;;;;;;;3.62;100.00;92733.69;2105947;28;20138;-82
2022/05/29 01:07:29;;;;;;;4.30;1.25;;;;;;;3.58;100.00;92725.75;2089821;28;20393;-81
2022/05/29 01:08:36;;;;;;;3.67;1.40;;;;;;;3.66;100.00;92724.63;2098058;28;20032;-82
2022/05/29 01:09:40;;;;;;;7.32;1.55;;;;;;;3.70;100.00;92732.53;2098495;28;20037;-81
2022/05/29 01:10:53;;;;;;;3.67;1.50;;;;;;;3.72;100.00;92725.72;2107583;28;20557;-81
2022/05/29 01:12:00;;;;;;;5.78;1.23;;;;;;;3.84;100.00;92721.19;2114563;28;20114;-81
2022/05/29 01:13:21;;;;;;;1.33;1.23;;;;;;;3.76;100.00;92720.44;2114874;28;20061;-81
2022/05/29 01:14:35;;;;;;;4.20;1.50;;;;;;;3.72;100.00;92722.34;2101806;28;20024;-81
2022/05/29 01:15:53;;;;;;;1.65;1.10;;;;;;;3.70;100.00;92714.78;2101698;27;20054;-81
2022/05/29 01:17:15;;;;;;;3.70;1.27;;;;;;;3.66;100.00;92713.28;2105983;28;20700;-81
2022/05/29 01:18:39;;;;;;;1.95;1.00;;;;;;;3.66;100.00;92714.06;2100582;28;20024;-81
2022/05/29 01:20:02;;;;;;;4.35;1.20;;;;;;;3.77;100.00;92706.09;2095686;28;20036;-81
2022/05/29 01:21:30;;;;;;;2.22;1.25;;;;;;;3.78;100.00;92713.66;2096452;28;20077;-81
2022/05/29 01:22:59;;;;;;;3.22;1.30;;;;;;;3.63;100.00;92714.81;2113862;28;20073;-81
2022/05/29 01:24:38;;;;;;;4.72;2.08;;;;;;;3.67;100.00;92710.25;2101675;28;20020;-82
2022/05/29 01:26:01;;;;;;;3.25;1.40;;;;;;;3.88;100.00;92706.81;2100354;28;20024;-82
2022/05/29 01:27:03;;;;;;;1.73;1.25;;;;;;;3.79;100.00;92701.94;2103851;28;20077;-81
2022/05/29 01:28:13;;;;;;;1.67;1.25;;;;;;;3.71;100.00;92703.09;2114611;28;20030;-81
2022/05/29 01:29:20;;;;;;;2.47;1.23;;;;;;;3.67;100.00;92704.97;2107262;28;20028;-81
2022/05/29 01:30:25;;;;;;;1.88;1.10;;;;;;;3.62;100.00;92699.34;2099276;28;20024;-81
2022/05/29 01:31:50;;;;;;;2.88;1.90;;;;;;;3.73;100.00;92706.13;2107019;27;20024;-81
2022/05/29 01:32:54;;;;;;;3.90;1.30;;;;;;;3.65;100.00;92698.59;2102869;28;20032;-81
2022/05/29 01:34:09;;;;;;;3.80;1.48;;;;;;;3.68;100.00;92690.63;2106313;28;20028;-82
2022/05/29 01:35:28;;;;;;;3.30;1.55;;;;;;;3.62;100.00;92689.53;2101375;28;20027;-81
2022/05/29 01:36:55;;;;;;;1.97;1.27;;;;;;;3.75;100.00;92687.97;2108414;28;20055;-82
2022/05/29 01:38:07;;;;;;;2.63;1.35;;;;;;;3.71;100.00;92684.59;2113339;27;20401;-82
2022/05/29 01:39:50;;;;;;;3.67;1.27;;;;;;;3.92;100.00;92688.31;2099109;28;20039;-81
2022/05/29 01:41:06;;;;;;;2.67;1.48;;;;;;;3.78;100.00;92684.56;2081884;28;20493;-81
2022/05/29 01:42:21;;;;;;;3.20;1.30;;;;;;;3.74;100.00;92677.78;2114159;28;20152;-81
2022/05/29 01:43:26;;;;;;;1.48;1.20;;;;;;;3.78;100.00;92681.94;2107816;28;20016;-81
2022/05/29 01:44:36;;;;;;;1.45;1.20;;;;;;;3.72;100.00;92683.44;2097932;28;20062;-82
2022/05/29 01:45:54;;;;;;;;;;;;;;;3.93;100.00;92671.28;2092121;28;20079;-82
2022/05/29 01:47:05;;;;;;;3.33;1.27;;;;;;;3.95;100.00;92671.66;2101201;28;19919;-81
2022/05/29 01:48:18;;;;;;;6.10;1.70;;;;;;;4.03;100.00;92673.13;2100204;28;20288;-81
2022/05/29 01:49:40;;;;;;;1.35;1.08;;;;;;;4.02;100.00;92671.63;2107233;28;20015;-82
2022/05/29 01:50:48;;;;;;;4.03;1.17;;;;;;;4.03;100.00;92673.13;2106203;28;20015;-82
2022/05/29 01:52:17;;;;;;;2.55;1.30;;;;;;;4.06;100.00;92672.38;2106735;28;20415;-81
2022/05/29 01:53:26;;;;;;;2.92;1.38;;;;;;;4.04;100.00;92670.13;2109596;28;20504;-82
2022/05/29 01:54:30;;;;;;;2.17;1.23;;;;;;;3.99;100.00;92667.84;2109904;27;20035;-82
2022/05/29 01:55:51;;;;;;;2.33;1.42;;;;;;;3.95;100.00;92667.13;2110635;28;20099;-81
2022/05/29 01:57:08;;;;;;;2.75;1.10;;;;;;;3.98;100.00;92661.06;2102649;28;20148;-81
2022/05/29 01:58:21;;;;;;;4.18;1.38;;;;;;;4.11;100.00;92658.75;2097191;28;20363;-82
2022/05/29 01:59:33;;;;;;;2.55;1.27;;;;;;;4.15;100.00;92656.84;2095711;28;20031;-81
2022/05/29 02:00:34;;;;;;;2.17;1.10;;;;;;;4.08;100.00;92661.41;2099845;28;20031;-82
2022/05/29 02:01:40;;;;;;;2.58;1.30;;;;;;;4.24;100.00;92659.06;2105355;28;20054;-81
2022/05/29 02:02:54;;;;;;;2.80;1.17;;;;;;;4.28;100.00;92657.88;2106118;28;20048;-81
2022/05/29 02:03:57;;;;;;;7.68;1.50;;;;;;;4.41;100.00;92654.81;2099040;28;20123;-81
2022/05/29 02:05:03;;;;;;;2.10;1.10;;;;;;;4.33;100.00;92656.72;2097303;28;20017;-80
2022/05/29 02:06:10;;;;;;;2.30;1.33;;;;;;;4.21;100.00;92660.56;2107173;27;20055;-81
2022/05/29 02:08:44;;;;;;;2.00;1.73;;;;;;;4.22;100.00;92651.50;2103683;28;20031;-81
2022/05/29 02:09:53;;;;;;;7.95;1.45;;;;;;;4.33;100.00;92653.34;2105704;28;20027;-81
2022/05/29 02:11:21;;;;;;;1.20;1.10;;;;;;;4.03;100.00;92650.06;2091150;28;20040;-81
2022/05/29 02:13:32;;;;;;;;;;;;;;;3.98;100.00;92644.44;2148439;27;20110;-81
2022/05/29 02:14:39;;;;;;;3.35;1.27;;;;;;;4.17;100.00;92641.34;2130031;27;19946;-80
2022/05/29 02:16:12;;;;;;;2.30;1.40;;;;;;;4.29;100.00;92637.47;2114504;27;20027;-80
2022/05/29 02:17:25;;;;;;;3.25;1.33;;;;;;;4.27;100.00;92642.41;2090878;28;20025;-80
2022/05/29 02:18:38;;;;;;;4.20;1.38;;;;;;;4.37;100.00;92638.19;2099845;28;20032;-80
2022/05/29 02:19:48;;;;;;;4.13;1.10;;;;;;;4.45;100.00;92637.00;2109266;27;20034;-80
2022/05/29 02:20:54;;;;;;;2.95;1.23;;;;;;;4.26;100.00;92639.03;2124581;27;20035;-80
2022/05/29 02:22:21;;;;;;;3.15;1.33;;;;;;;4.27;100.00;92634.47;2113767;28;20076;-80
2022/05/29 02:23:36;;;;;;;2.20;1.10;;;;;;;4.25;100.00;92634.84;2124983;27;20015;-80
2022/05/29 02:24:52;;;;;;;3.92;1.40;;;;;;;4.17;100.00;92636.06;2121395;28;20027;-80
2022/05/29 02:25:55;;;;;;;2.22;1.48;;;;;;;4.26;100.00;92628.44;2125758;27;20488;-81
2022/05/29 02:27:06;;;;;;;2.42;1.20;;;;;;;4.13;100.00;92624.00;2121368;28;20641;-81
2022/05/29 02:28:13;;;;;;;1.23;1.13;;;;;;;4.13;100.00;92626.63;2107323;28;20598;-80
2022/05/29 02:29:16;;;;;;;2.78;1.38;;;;;;;4.16;100.00;92628.50;2106313;28;20047;-79
2022/05/29 02:30:18;;;;;;;2.67;1.33;;;;;;;4.18;100.00;92634.91;2113297;28;20152;-80
2022/05/29 02:31:31;;;;;;;3.03;1.10;;;;;;;4.12;100.00;92627.75;2121538;27;20354;-80
2022/05/29 02:32:37;;;;;;;2.80;1.30;;;;;;;4.20;100.00;92622.03;2114257;28;20067;-80
2022/05/29 02:34:01;;;;;;;1.77;1.30;;;;;;;4.20;100.00;92634.50;2113512;28;20474;-81
2022/05/29 02:35:21;;;;;;;4.43;1.23;;;;;;;4.29;100.00;92629.53;2111002;28;20074;-80
2022/05/29 02:36:37;;;;;;;3.28;1.40;;;;;;;4.35;100.00;92629.91;2106986;28;20028;-80
2022/05/29 02:37:44;;;;;;;1.50;1.38;;;;;;;4.50;100.00;92626.00;2114971;28;20035;-81
2022/05/29 02:39:00;;;;;;;3.35;1.33;;;;;;;4.53;100.00;92628.63;2120390;27;20023;-80
2022/05/29 02:40:56;;;;;;;4.00;1.30;;;;;;;4.41;100.00;92625.69;2123321;27;20015;-81
2022/05/29 02:42:36;;;;;;;4.25;1.48;;;;;;;4.54;100.00;92624.09;2087261;28;20041;-81
2022/05/29 02:43:46;;;;;;;3.13;1.02;;;;;;;4.51;100.00;92622.97;2078658;28;20029;-81
2022/05/29 02:45:07;;;;;;;3.25;1.42;;;;;;;4.52;100.00;92619.19;2095380;28;20518;-80
2022/05/29 02:46:28;;;;;;;4.28;1.48;;;;;;;4.53;100.00;92614.66;2086130;28;20032;-80
2022/05/29 02:48:00;;;;;;;3.55;1.20;;;;;;;4.50;100.00;92613.53;2101769;28;20022;-81
2022/05/29 02:49:11;;;;;;;1.65;1.10;;;;;;;4.46;100.00;92618.09;2108538;28;20049;-81
2022/05/29 02:50:45;;;;;;;2.22;1.10;;;;;;;4.31;100.00;92619.34;2097415;28;20025;-80
2022/05/29 02:51:52;;;;;;;2.70;1.55;;;;;;;4.33;100.00;92617.03;2105242;28;20042;-81
2022/05/29 02:52:55;;;;;;;2.33;1.40;;;;;;;4.43;100.00;92618.13;2104880;28;20085;-81
2022/05/29 02:53:57;;;;;;;2.50;1.30;;;;;;;4.42;100.00;92613.97;2096158;28;20024;-81
2022/05/29 02:54:58;;;;;;;3.15;1.60;;;;;;;4.39;100.00;92607.56;2096279;28;20021;-80
2022/05/29 02:56:03;;;;;;;2.65;1.60;;;;;;;4.45;100.00;92611.31;2095723;28;20098;-81
2022/05/29 02:57:04;;;;;;;3.88;1.60;;;;;;;4.44;100.00;92609.06;2097176;28;20024;-81
2022/05/29 02:58:18;;;;;;;4.35;1.65;;;;;;;4.50;100.00;92612.78;2104183;28;20046;-81
2022/05/29 02:59:23;;;;;;;2.80;1.40;;;;;;;4.49;100.00;92608.63;2101913;28;20025;-81
2022/05/29 03:00:30;;;;;;;2.38;1.20;;;;;;;4.66;100.00;92604.34;2105461;28;20135;-81
2022/05/29 03:01:50;;;;;;;2.45;1.40;;;;;;;4.59;100.00;92604.41;2111380;27;20041;-81
2022/05/29 03:03:03;;;;;;;1.73;1.30;;;;;;;4.66;100.00;92607.00;2110541;28;20771;-80
2022/05/29 03:04:28;;;;;;;4.53;1.20;;;;;;;4.68;100.00;92608.09;2114189;28;20023;-81
2022/05/29 03:05:42;;;;;;;2.20;1.50;;;;;;;4.59;100.00;92605.16;2107578;28;20028;-81
2022/05/29 03:06:49;;;;;;;3.33;1.40;;;;;;;4.53;100.00;92609.38;2116565;27;20124;-81
2022/05/29 03:08:01;;;;;;;2.35;1.52;;;;;;;4.65;100.00;92608.88;2112487;28;20528;-81
2022/05/29 03:09:20;;;;;;;3.10;1.30;;;;;;;4.72;100.00;92600.13;2098856;28;20032;-81
2022/05/29 03:10:25;;;;;;;1.52;1.17;;;;;;;4.72;100.00;92597.50;2109157;28;20107;-81
2022/05/29 03:11:39;;;;;;;1.80;1.23;;;;;;;4.58;100.00;92601.00;2104702;28;20033;-81
2022/05/29 03:13:11;;;;;;;2.95;1.25;;;;;;;4.47;100.00;92593.13;2098802;28;20075;-81
2022/05/29 03:14:33;;;;;;;4.07;1.38;;;;;;;4.62;100.00;92595.69;2104259;28;20039;-80
2022/05/29 03:15:59;;;;;;;5.00;1.40;;;;;;;4.48;100.00;92596.56;2107036;28;20603;-81
2022/05/29 03:17:24;;;;;;;2.35;1.20;;;;;;;4.42;100.00;92598.84;2099168;28;20035;-80
2022/05/29 03:18:52;;;;;;;1.85;1.20;;;;;;;4.45;100.00;92587.50;2102430;28;20504;-81
2022/05/29 03:20:08;;;;;;;2.13;1.20;;;;;;;4.60;100.00;92590.75;2116122;28;20473;-81
2022/05/29 03:21:34;;;;;;;3.28;1.30;;;;;;;4.57;100.00;92588.16;2111686;28;20024;-81
2022/05/29 03:23:09;;;;;;;4.03;1.30;;;;;;;4.73;100.00;92583.84;2119576;27;20029;-81
2022/05/29 03:24:10;;;;;;;3.33;1.23;;;;;;;4.60;100.00;92590.75;2119291;28;20035;-81
2022/05/29 03:25:27;;;;;;;2.33;1.38;;;;;;;4.48;100.00;92584.06;2097960;28;20024;-80
2022/05/29 03:26:56;;;;;;;5.20;1.50;;;;;;;4.50;100.00;92586.31;2092175;28;20037;-81
2022/05/29 03:28:00;;;;;;;3.25;1.17;;;;;;;4.44;100.00;92586.00;2098057;28;20020;-80
2022/05/29 03:29:16;;;;;;;1.77;1.30;;;;;;;4.44;100.00;92588.63;2114478;28;20869;-80
2022/05/29 03:30:25;;;;;;;3.75;1.50;;;;;;;4.43;100.00;92587.09;2108948;28;20019;-81
2022/05/29 03:31:31;;;;;;;4.73;1.40;;;;;;;4.53;100.00;92583.66;2099433;28;20082;-80
2022/05/29 03:32:35;;;;;;;2.80;1.40;;;;;;;4.50;100.00;92589.72;2099373;28;20435;-81
2022/05/29 03:33:41;;;;;;;8.05;1.50;;;;;;;4.39;100.00;92581.13;2090911;28;20409;-81
2022/05/29 03:35:34;;;;;;;1.95;1.30;;;;;;;4.41;100.00;92593.94;2099093;28;20028;-81
2022/05/29 03:36:35;;;;;;;2.95;1.48;;;;;;;4.53;100.00;92583.66;2105464;28;20099;-81
2022/05/29 03:37:36;;;;;;;2.20;1.55;;;;;;;4.64;100.00;92580.16;2098346;28;20115;-81
2022/05/29 03:38:38;;;;;;;3.97;1.80;;;;;;;4.64;100.00;92585.44;2095412;28;20017;-81
2022/05/29 03:39:39;;;;;;;1.75;1.50;;;;;;;4.83;100.00;92582.28;2098316;28;20052;-81
2022/05/29 03:40:40;;;;;;;2.92;1.58;;;;;;;4.72;100.00;92574.41;2098234;28;20020;-81
2022/05/29 03:41:46;;;;;;;2.47;1.58;;;;;;;4.66;100.00;92576.00;2103385;28;20470;-81
2022/05/29 03:42:47;;;;;;;6.03;1.50;;;;;;;4.52;100.00;92576.84;2092888;28;20052;-81
2022/05/29 03:43:48;;;;;;;2.50;1.52;;;;;;;4.52;100.00;92581.38;2090240;28;20025;-81
2022/05/29 03:44:49;;;;;;;3.90;1.67;;;;;;;4.44;100.00;92577.31;2090015;28;20039;-81
2022/05/29 03:45:51;;;;;;;2.97;1.77;;;;;;;4.31;100.00;92568.31;2089879;28;20031;-81
2022/05/29 03:46:52;;;;;;;4.75;1.58;;;;;;;4.20;100.00;92571.03;2090198;28;20050;-81
2022/05/29 03:47:55;;;;;;;43.35;13.10;;;;;;;4.22;100.00;92574.81;2090284;28;20025;-82
2022/05/29 03:48:56;;;;;;;35.38;11.68;;;;;;;4.38;100.00;92576.19;2090268;28;20037;-80
2022/05/29 03:49:58;;;;;;;34.35;11.57;;;;;;;4.44;100.00;92564.06;2090163;28;20029;-81
2022/05/29 03:51:08;;;;;;;22.77;8.23;;;;;;;4.34;100.00;92570.94;2090025;28;20466;-81
2022/05/29 03:52:10;;;;;;;21.60;7.32;;;;;;;4.31;100.00;92571.72;2091347;28;20036;-81
2022/05/29 03:53:11;;;;;;;23.83;7.55;;;;;;;4.34;100.00;92572.81;2090046;28;20029;-81
2022/05/29 03:54:13;;;;;;;12.45;5.57;;;;;;;4.36;100.00;92566.00;2089987;28;20036;-81
2022/05/29 03:55:17;;;;;;;14.32;5.18;;;;;;;4.31;100.00;92569.06;2082126;28;20492;-80
2022/05/29 03:56:18;;;;;;;13.60;5.45;;;;;;;4.10;100.00;92563.94;2082273;28;20036;-81
2022/05/29 03:57:19;;;;;;;13.50;4.50;;;;;;;4.07;100.00;92568.09;2095965;28;20020;-81
2022/05/29 03:58:20;;;;;;;8.82;3.60;;;;;;;4.23;100.00;92570.25;2098298;28;20409;-81
2022/05/29 03:59:21;;;;;;;7.13;3.25;;;;;;;4.22;100.00;92572.16;2098324;28;20016;-81
2022/05/29 04:00:24;;;;;;;5.85;2.58;;;;;;;4.19;100.00;92572.19;2106691;28;20032;-81
2022/05/29 04:01:25;;;;;;;7.40;2.38;;;;;;;4.22;100.00;92568.75;2123283;27;20433;-81
2022/05/29 04:02:26;;;;;;;4.70;2.05;;;;;;;4.17;100.00;92571.78;2114848;28;20028;-81
2022/05/29 04:03:28;;;;;;;3.50;1.85;;;;;;;4.12;100.00;92575.59;2092536;28;20020;-80
2022/05/29 04:04:30;;;;;;;5.45;2.22;;;;;;;4.16;100.00;92573.69;2082031;28;20032;-80
2022/05/29 04:05:32;;;;;;;2.85;2.00;;;;;;;4.20;100.00;92577.06;2081863;28;20021;-81
2022/05/29 04:06:40;;;;;;;3.30;1.85;;;;;;;4.26;100.00;92582.72;2089846;28;20613;-80
2022/05/29 04:12:07;;;;;;;4.88;1.92;;;;;;;4.29;100.00;92579.28;2110229;28;20020;-81
2022/05/29 04:13:11;;;;;;;4.05;1.83;;;;;;;4.20;100.00;92577.06;2097607;28;20836;-80
2022/05/29 04:14:12;;;;;;;3.10;1.58;;;;;;;4.26;100.00;92572.88;2090793;28;20037;-81
2022/05/29 04:15:13;;;;;;;7.22;2.25;;;;;;;4.36;100.00;92579.25;2098081;28;20509;-80
2022/05/29 04:16:14;;;;;;;2.30;1.88;;;;;;;4.22;100.00;92587.28;2091216;28;20052;-81
2022/05/29 04:17:18;;;;;;;2.85;1.88;;;;;;;4.32;100.00;92573.22;2098063;28;20024;-80
2022/05/29 04:18:21;;;;;;;4.30;1.92;;;;;;;4.41;100.00;92570.88;2098418;28;20094;-80
2022/05/29 04:19:23;;;;;;;3.83;1.90;;;;;;;4.42;100.00;92576.94;2090128;28;20465;-81
2022/05/29 04:20:24;;;;;;;3.55;1.60;;;;;;;4.49;100.00;92568.94;2081691;28;20053;-82
2022/05/29 04:21:25;;;;;;;5.10;1.85;;;;;;;4.53;100.00;92575.72;2089721;28;20477;-81
2022/05/29 04:22:26;;;;;;;4.15;1.80;;;;;;;4.50;100.00;92573.09;2098017;28;20123;-81
2022/05/29 04:23:28;;;;;;;2.22;1.73;;;;;;;4.56;100.00;92571.50;2089799;28;20428;-81
2022/05/29 04:24:29;;;;;;;4.72;1.55;;;;;;;4.62;100.00;92577.16;2089881;28;20117;-81
2022/05/29 04:25:31;;;;;;;4.88;1.80;;;;;;;4.65;100.00;92573.72;2089815;28;20111;-81
2022/05/29 04:26:33;;;;;;;4.68;1.85;;;;;;;4.78;100.00;92572.09;2081635;28;20623;-81
2022/05/29 04:27:34;;;;;;;6.28;1.90;;;;;;;4.69;100.00;92564.59;2090101;28;20036;-81
2022/05/29 04:28:38;;;;;;;4.50;1.70;;;;;;;4.63;100.00;92568.81;2098397;28;20024;-81
2022/05/29 04:29:40;;;;;;;4.55;2.05;;;;;;;4.68;100.00;92567.66;2106274;28;20066;-80
2022/05/29 04:30:42;;;;;;;3.33;1.65;;;;;;;4.64;100.00;92572.22;2098092;28;20090;-81
2022/05/29 04:33:06;;;;;;;3.65;1.58;;;;;;;4.78;100.00;92574.75;2095523;28;20049;-80
2022/05/29 04:34:08;;;;;;;3.38;1.80;;;;;;;4.99;100.00;92579.09;2098046;28;20028;-81
2022/05/29 04:35:09;;;;;;;2.53;1.83;;;;;;;5.05;100.00;92570.34;2090375;28;20074;-80
2022/05/29 04:36:11;;;;;;;4.43;1.92;;;;;;;5.14;100.00;92577.81;2097018;28;20021;-80
2022/05/29 04:37:13;;;;;;;4.68;1.65;;;;;;;5.13;100.00;92570.25;2081522;28;20053;-80
2022/05/29 04:38:16;;;;;;;2.40;1.70;;;;;;;5.09;100.00;92585.44;2100236;28;20497;-80
2022/05/29 04:39:17;;;;;;;5.07;2.08;;;;;;;5.08;100.00;92581.28;2106231;28;20119;-80
2022/05/29 04:40:18;;;;;;;4.93;1.83;;;;;;;5.04;100.00;92582.06;2106282;28;20024;-80
2022/05/29 04:41:25;;;;;;;2.17;1.50;;;;;;;5.04;100.00;92578.66;2097673;28;20021;-80
2022/05/29 04:42:26;;;;;;;3.38;1.48;;;;;;;5.12;100.00;92584.66;2099472;28;20020;-80
2022/05/29 04:43:27;;;;;;;5.93;1.73;;;;;;;5.18;100.00;92581.19;2097956;28;20021;-81
2022/05/29 04:44:30;;;;;;;2.03;1.70;;;;;;;5.16;100.00;92580.06;2106307;28;20528;-81
2022/05/29 04:45:33;;;;;;;3.33;1.70;;;;;;;5.14;100.00;92582.38;2099772;28;20024;-81
2022/05/29 04:46:35;;;;;;;3.80;1.65;;;;;;;5.21;100.00;92583.03;2089983;28;20029;-81
2022/05/29 04:47:38;;;;;;;2.72;1.70;;;;;;;5.24;100.00;92581.50;2087798;28;20084;-81
2022/05/29 04:48:41;;;;;;;3.83;2.00;;;;;;;5.25;100.00;92577.69;2097013;28;20021;-81
2022/05/29 04:49:43;;;;;;;3.70;1.65;;;;;;;5.28;100.00;92579.56;2095599;28;20849;-81
2022/05/29 04:50:44;;;;;;;4.88;2.00;;;;;;;5.23;100.00;92580.75;2087504;28;20020;-80
2022/05/29 04:51:45;;;;;;;4.30;1.67;;;;;;;5.33;100.00;92579.13;2096525;28;20048;-80
2022/05/29 04:52:49;;;;;;;4.68;1.70;;;;;;;5.44;100.00;92581.66;2087867;28;20545;-81
2022/05/29 04:53:52;;;;;;;3.67;1.98;;;;;;;5.42;100.00;92583.97;2081139;28;20095;-81
2022/05/29 04:55:00;;;;;;;5.63;1.80;;;;;;;5.38;100.00;92578.69;2088152;28;20021;-81
2022/05/29 04:56:03;;;;;;;4.25;1.75;;;;;;;5.42;100.00;92587.34;2089014;28;20416;-80
2022/05/29 04:57:06;;;;;;;4.05;1.73;;;;;;;5.47;100.00;92584.28;2088436;28;20029;-81
2022/05/29 04:58:08;;;;;;;2.30;1.50;;;;;;;5.56;100.00;92589.84;2096498;28;20033;-81
2022/05/29 04:59:09;;;;;;;2.30;1.48;;;;;;;5.57;100.00;92580.00;2096531;28;20024;-81
2022/05/29 05:00:12;;;;;;;3.20;1.80;;;;;;;5.56;100.00;92587.19;2088378;28;20029;-81
2022/05/29 05:01:13;;;;;;;1.67;1.35;;;;;;;5.60;100.00;92586.41;2080643;28;20021;-81
2022/05/29 05:02:14;;;;;;;4.47;1.50;;;;;;;5.62;100.00;92584.09;2088565;28;20067;-81
2022/05/29 05:03:15;;;;;;;6.05;1.77;;;;;;;5.62;100.00;92581.44;2092437;28;20016;-81
2022/05/29 05:04:17;;;;;;;4.25;1.70;;;;;;;5.65;100.00;92578.00;2087927;28;20033;-81
2022/05/29 05:05:18;;;;;;;5.70;1.75;;;;;;;5.69;100.00;92581.38;2090466;28;20373;-82
2022/05/29 05:06:19;;;;;;;5.00;1.67;;;;;;;5.67;100.00;92581.03;2094348;28;20097;-81
2022/05/29 05:07:20;;;;;;;7.15;1.80;;;;;;;5.68;100.00;92577.97;2088472;28;20107;-81
2022/05/29 05:08:22;;;;;;;5.78;1.60;;;;;;;5.72;100.00;92577.94;2088228;28;20207;-81
2022/05/29 05:09:23;;;;;;;3.67;1.95;;;;;;;5.78;100.00;92573.69;2088407;28;20020;-81
2022/05/29 05:10:24;;;;;;;6.40;1.80;;;;;;;5.78;100.00;92576.34;2097055;28;20484;-81
2022/05/29 05:11:25;;;;;;;7.43;2.90;;;;;;;5.91;100.00;92574.66;2099931;28;20476;-82
2022/05/29 05:12:26;;;;;;;6.97;3.33;;;;;;;5.95;100.00;92572.00;2098004;28;20032;-81
2022/05/29 05:13:27;;;;;;;5.95;2.72;;;;;;;5.99;100.00;92575.34;2104666;28;20020;-81
2022/05/29 05:14:29;;;;;;;2.50;2.00;;;;;;;6.07;100.00;92571.44;2088595;28;20060;-82
2022/05/29 05:15:37;;;;;;;6.63;2.55;;;;;;;6.21;99.23;92571.25;2104369;28;20552;-81
2022/05/29 05:16:38;;;;;;;7.88;5.15;;;;;;;6.27;99.54;92574.94;2114790;27;20019;-82
2022/05/29 05:17:39;;;;;;;6.20;3.85;;;;;;;6.18;100.00;92572.03;2104497;28;20020;-81
2022/05/29 05:18:42;;;;;;;10.05;3.03;;;;;;;6.15;100.00;92569.47;2088677;28;20481;-83
2022/05/29 05:19:43;;;;;;;4.32;1.98;;;;;;;6.16;100.00;92558.44;2097159;28;20028;-83
2022/05/29 05:20:44;;;;;;;4.07;2.10;;;;;;;6.21;100.00;92565.19;2102226;28;20016;-82
2022/05/29 05:21:46;;;;;;;7.45;2.33;;;;;;;6.20;100.00;92564.44;2103700;28;20643;-82
2022/05/29 05:22:47;;;;;;;4.90;1.95;;;;;;;6.27;98.25;92564.31;2096831;28;20553;-83
2022/05/29 05:23:48;;;;;;;4.63;1.98;;;;;;;6.18;100.00;92564.06;2105310;28;20024;-82
2022/05/29 05:24:49;;;;;;;4.20;1.63;;;;;;;6.15;100.00;92564.91;2117592;27;20033;-81
2022/05/29 05:25:50;;;;;;;4.72;2.00;;;;;;;6.22;98.40;92572.75;2113551;28;20114;-81
2022/05/29 05:26:51;;;;;;;3.40;1.73;;;;;;;6.29;98.00;92559.38;2097181;28;20127;-82
2022/05/29 05:27:53;;;;;;;3.28;1.60;;;;;;;6.38;100.00;92574.06;2096952;28;20538;-81